sensor_id;sensor_type;location;lat;lon;timestamp;P1;durP1;ratioP1;P2;durP2;ratioP2
16735;SDS011;17990;49.548;9.730;2022-08-11T00:00:21;5.63;;;2.00;;
16735;SDS011;17990;49.548;9.730;2022-08-11T00:03:03;8.80;;;3.97;;
16735;SDS011;17990;49.548;9.730;2022-08-11T00:05:32;4.13;;;2.10;;
16735;SDS011;17990;49.548;9.730;2022-08-11T00:08:10;3.77;;;1.70;;
16735;SDS011;17990;49.548;9.730;2022-08-11T00:10:50;4.60;;;2.10;;
16735;SDS011;17990;49.548;9.730;2022-08-11T00:13:21;3.03;;;1.70;;
16735;SDS011;17990;49.548;9.730;2022-08-11T00:15:58;4.93;;;2.03;;
16735;SDS011;17990;49.548;9.730;2022-08-11T00:18:26;4.37;;;1.80;;
16735;SDS011;17990;49.548;9.730;2022-08-11T00:20:57;8.03;;;2.60;;
16735;SDS011;17990;49.548;9.730;2022-08-11T00:23:25;4.80;;;2.00;;
16735;SDS011;17990;49.548;9.730;2022-08-11T00:25:53;2.50;;;1.87;;
16735;SDS011;17990;49.548;9.730;2022-08-11T00:28:25;5.23;;;1.93;;
16735;SDS011;17990;49.548;9.730;2022-08-11T00:30:54;2.40;;;1.77;;
16735;SDS011;17990;49.548;9.730;2022-08-11T00:33:25;4.10;;;1.90;;
16735;SDS011;17990;49.548;9.730;2022-08-11T00:36:00;8.20;;;2.00;;
16735;SDS011;17990;49.548;9.730;2022-08-11T00:38:32;5.07;;;2.20;;
16735;SDS011;17990;49.548;9.730;2022-08-11T00:41:07;4.27;;;2.20;;
16735;SDS011;17990;49.548;9.730;2022-08-11T00:43:58;4.90;;;1.80;;
16735;SDS011;17990;49.548;9.730;2022-08-11T00:46:41;5.10;;;2.30;;
16735;SDS011;17990;49.548;9.730;2022-08-11T00:49:23;4.73;;;2.03;;
16735;SDS011;17990;49.548;9.730;2022-08-11T00:52:07;4.30;;;2.10;;
16735;SDS011;17990;49.548;9.730;2022-08-11T00:55:02;5.30;;;2.00;;
16735;SDS011;17990;49.548;9.730;2022-08-11T00:58:21;4.57;;;1.80;;
16735;SDS011;17990;49.548;9.730;2022-08-11T01:01:26;4.97;;;1.90;;
16735;SDS011;17990;49.548;9.730;2022-08-11T01:04:31;3.97;;;2.23;;
16735;SDS011;17990;49.548;9.730;2022-08-11T01:07:49;5.60;;;2.00;;
16735;SDS011;17990;49.548;9.730;2022-08-11T01:10:47;6.80;;;2.17;;
16735;SDS011;17990;49.548;9.730;2022-08-11T01:13:54;5.73;;;1.90;;
16735;SDS011;17990;49.548;9.730;2022-08-11T01:17:08;5.10;;;1.97;;
16735;SDS011;17990;49.548;9.730;2022-08-11T01:44:52;2.90;;;2.03;;
16735;SDS011;17990;49.548;9.730;2022-08-11T01:47:44;5.47;;;2.30;;
16735;SDS011;17990;49.548;9.730;2022-08-11T01:50:26;3.07;;;1.83;;
16735;SDS011;17990;49.548;9.730;2022-08-11T01:53:08;2.40;;;2.00;;
16735;SDS011;17990;49.548;9.730;2022-08-11T01:55:48;7.63;;;2.33;;
16735;SDS011;17990;49.548;9.730;2022-08-11T01:58:28;5.20;;;2.10;;
16735;SDS011;17990;49.548;9.730;2022-08-11T02:01:06;3.30;;;2.20;;
16735;SDS011;17990;49.548;9.730;2022-08-11T02:03:49;3.83;;;2.40;;
16735;SDS011;17990;49.548;9.730;2022-08-11T02:06:27;3.30;;;2.43;;
16735;SDS011;17990;49.548;9.730;2022-08-11T02:09:23;7.57;;;2.40;;
16735;SDS011;17990;49.548;9.730;2022-08-11T02:12:12;5.83;;;2.10;;
16735;SDS011;17990;49.548;9.730;2022-08-11T02:14:48;6.03;;;2.40;;
16735;SDS011;17990;49.548;9.730;2022-08-11T02:17:35;3.67;;;2.20;;
16735;SDS011;17990;49.548;9.730;2022-08-11T02:20:14;3.37;;;2.40;;
16735;SDS011;17990;49.548;9.730;2022-08-11T02:23:08;5.70;;;2.77;;
16735;SDS011;17990;49.548;9.730;2022-08-11T02:26:07;4.83;;;2.10;;
16735;SDS011;17990;49.548;9.730;2022-08-11T02:28:45;2.70;;;2.20;;
16735;SDS011;17990;49.548;9.730;2022-08-11T02:31:32;7.77;;;2.40;;
16735;SDS011;17990;49.548;9.730;2022-08-11T02:34:31;3.50;;;2.40;;
16735;SDS011;17990;49.548;9.730;2022-08-11T02:37:13;4.43;;;2.20;;
16735;SDS011;17990;49.548;9.730;2022-08-11T02:39:54;5.13;;;2.60;;
16735;SDS011;17990;49.548;9.730;2022-08-11T02:42:37;8.00;;;2.37;;
16735;SDS011;17990;49.548;9.730;2022-08-11T02:45:18;2.43;;;2.00;;
16735;SDS011;17990;49.548;9.730;2022-08-11T02:48:08;6.73;;;2.50;;
16735;SDS011;17990;49.548;9.730;2022-08-11T02:51:19;4.47;;;2.37;;
16735;SDS011;17990;49.548;9.730;2022-08-11T02:54:01;5.77;;;2.40;;
16735;SDS011;17990;49.548;9.730;2022-08-11T02:56:41;7.07;;;2.73;;
16735;SDS011;17990;49.548;9.730;2022-08-11T02:59:18;3.77;;;2.57;;
16735;SDS011;17990;49.548;9.730;2022-08-11T03:02:15;2.63;;;2.20;;
16735;SDS011;17990;49.548;9.730;2022-08-11T03:08:20;4.97;;;2.23;;
16735;SDS011;17990;49.548;9.730;2022-08-11T03:11:00;6.80;;;2.57;;
16735;SDS011;17990;49.548;9.730;2022-08-11T03:13:55;6.27;;;2.70;;
16735;SDS011;17990;49.548;9.730;2022-08-11T03:16:55;4.53;;;2.70;;
16735;SDS011;17990;49.548;9.730;2022-08-11T03:19:33;4.03;;;2.27;;
16735;SDS011;17990;49.548;9.730;2022-08-11T03:22:18;4.37;;;2.30;;
16735;SDS011;17990;49.548;9.730;2022-08-11T03:24:53;4.53;;;2.33;;
16735;SDS011;17990;49.548;9.730;2022-08-11T03:27:36;5.97;;;2.63;;
16735;SDS011;17990;49.548;9.730;2022-08-11T03:30:16;8.57;;;3.00;;
16735;SDS011;17990;49.548;9.730;2022-08-11T03:32:57;4.83;;;2.47;;
16735;SDS011;17990;49.548;9.730;2022-08-11T03:36:02;4.63;;;2.30;;
16735;SDS011;17990;49.548;9.730;2022-08-11T03:38:44;14.00;;;2.50;;
16735;SDS011;17990;49.548;9.730;2022-08-11T03:41:28;5.87;;;2.60;;
16735;SDS011;17990;49.548;9.730;2022-08-11T03:44:24;4.93;;;2.60;;
16735;SDS011;17990;49.548;9.730;2022-08-11T03:47:17;6.87;;;2.80;;
16735;SDS011;17990;49.548;9.730;2022-08-11T03:50:11;7.00;;;3.30;;
16735;SDS011;17990;49.548;9.730;2022-08-11T03:52:57;7.60;;;2.70;;
16735;SDS011;17990;49.548;9.730;2022-08-11T03:55:49;4.83;;;2.60;;
16735;SDS011;17990;49.548;9.730;2022-08-11T03:59:02;5.27;;;2.87;;
16735;SDS011;17990;49.548;9.730;2022-08-11T04:02:21;5.60;;;2.70;;
16735;SDS011;17990;49.548;9.730;2022-08-11T04:12:26;3.03;;;2.60;;
16735;SDS011;17990;49.548;9.730;2022-08-11T04:15:12;5.47;;;2.73;;
16735;SDS011;17990;49.548;9.730;2022-08-11T04:18:39;8.17;;;2.77;;
16735;SDS011;17990;49.548;9.730;2022-08-11T04:21:50;7.67;;;2.80;;
16735;SDS011;17990;49.548;9.730;2022-08-11T04:24:50;8.37;;;3.00;;
16735;SDS011;17990;49.548;9.730;2022-08-11T04:27:52;5.17;;;2.43;;
16735;SDS011;17990;49.548;9.730;2022-08-11T04:30:43;6.07;;;3.13;;
16735;SDS011;17990;49.548;9.730;2022-08-11T04:33:42;4.57;;;2.73;;
16735;SDS011;17990;49.548;9.730;2022-08-11T04:36:33;7.40;;;2.80;;
16735;SDS011;17990;49.548;9.730;2022-08-11T04:39:46;6.40;;;2.73;;
16735;SDS011;17990;49.548;9.730;2022-08-11T04:49:44;6.20;;;3.03;;
16735;SDS011;17990;49.548;9.730;2022-08-11T04:53:07;9.63;;;3.10;;
16735;SDS011;17990;49.548;9.730;2022-08-11T04:56:19;5.90;;;3.10;;
16735;SDS011;17990;49.548;9.730;2022-08-11T04:59:26;8.57;;;3.43;;
16735;SDS011;17990;49.548;9.730;2022-08-11T05:03:00;6.80;;;3.00;;
16735;SDS011;17990;49.548;9.730;2022-08-11T05:06:08;5.83;;;2.63;;
16735;SDS011;17990;49.548;9.730;2022-08-11T05:09:18;15.93;;;3.33;;
16735;SDS011;17990;49.548;9.730;2022-08-11T05:12:01;8.83;;;2.50;;
16735;SDS011;17990;49.548;9.730;2022-08-11T05:14:50;10.87;;;3.40;;
16735;SDS011;17990;49.548;9.730;2022-08-11T05:17:38;9.07;;;2.83;;
16735;SDS011;17990;49.548;9.730;2022-08-11T05:20:27;5.27;;;3.10;;
16735;SDS011;17990;49.548;9.730;2022-08-11T05:23:14;4.43;;;2.90;;
16735;SDS011;17990;49.548;9.730;2022-08-11T05:26:03;5.60;;;3.10;;
16735;SDS011;17990;49.548;9.730;2022-08-11T05:28:53;10.13;;;3.60;;
16735;SDS011;17990;49.548;9.730;2022-08-11T05:31:44;5.57;;;2.40;;
16735;SDS011;17990;49.548;9.730;2022-08-11T05:34:42;4.03;;;2.70;;
16735;SDS011;17990;49.548;9.730;2022-08-11T05:37:17;7.80;;;3.00;;
16735;SDS011;17990;49.548;9.730;2022-08-11T05:39:52;7.87;;;2.80;;
16735;SDS011;17990;49.548;9.730;2022-08-11T05:42:47;9.60;;;2.87;;
16735;SDS011;17990;49.548;9.730;2022-08-11T05:45:34;8.97;;;2.70;;
16735;SDS011;17990;49.548;9.730;2022-08-11T05:48:19;12.60;;;3.57;;
16735;SDS011;17990;49.548;9.730;2022-08-11T05:51:04;7.73;;;3.00;;
16735;SDS011;17990;49.548;9.730;2022-08-11T05:53:52;8.20;;;3.27;;
16735;SDS011;17990;49.548;9.730;2022-08-11T05:56:43;8.37;;;3.03;;
16735;SDS011;17990;49.548;9.730;2022-08-11T05:59:16;6.33;;;2.70;;
16735;SDS011;17990;49.548;9.730;2022-08-11T06:01:45;7.47;;;3.03;;
16735;SDS011;17990;49.548;9.730;2022-08-11T06:04:15;5.28;;;2.70;;
16735;SDS011;17990;49.548;9.730;2022-08-11T06:06:49;5.82;;;2.47;;
16735;SDS011;17990;49.548;9.730;2022-08-11T06:09:23;9.90;;;2.88;;
16735;SDS011;17990;49.548;9.730;2022-08-11T06:11:55;6.65;;;2.50;;
16735;SDS011;17990;49.548;9.730;2022-08-11T06:14:28;5.20;;;2.20;;
16735;SDS011;17990;49.548;9.730;2022-08-11T06:16:57;6.25;;;2.35;;
16735;SDS011;17990;49.548;9.730;2022-08-11T06:19:33;7.47;;;2.30;;
16735;SDS011;17990;49.548;9.730;2022-08-11T06:22:07;5.15;;;2.55;;
16735;SDS011;17990;49.548;9.730;2022-08-11T06:24:37;5.00;;;2.33;;
16735;SDS011;17990;49.548;9.730;2022-08-11T06:27:12;7.00;;;3.13;;
16735;SDS011;17990;49.548;9.730;2022-08-11T06:29:46;8.45;;;4.38;;
16735;SDS011;17990;49.548;9.730;2022-08-11T06:32:16;5.60;;;2.70;;
16735;SDS011;17990;49.548;9.730;2022-08-11T06:34:52;5.65;;;2.50;;
16735;SDS011;17990;49.548;9.730;2022-08-11T06:37:32;4.20;;;2.47;;
16735;SDS011;17990;49.548;9.730;2022-08-11T06:40:10;6.55;;;2.70;;
16735;SDS011;17990;49.548;9.730;2022-08-11T06:42:49;5.13;;;2.80;;
16735;SDS011;17990;49.548;9.730;2022-08-11T06:45:25;6.03;;;3.05;;
16735;SDS011;17990;49.548;9.730;2022-08-11T06:47:59;7.20;;;2.88;;
16735;SDS011;17990;49.548;9.730;2022-08-11T06:50:27;6.53;;;2.50;;
16735;SDS011;17990;49.548;9.730;2022-08-11T06:53:14;3.70;;;2.30;;
16735;SDS011;17990;49.548;9.730;2022-08-11T06:55:44;7.28;;;2.50;;
16735;SDS011;17990;49.548;9.730;2022-08-11T06:58:35;6.10;;;2.55;;
16735;SDS011;17990;49.548;9.730;2022-08-11T07:01:31;3.35;;;1.95;;
16735;SDS011;17990;49.548;9.730;2022-08-11T07:04:10;6.25;;;2.30;;
16735;SDS011;17990;49.548;9.730;2022-08-11T07:06:47;5.07;;;1.92;;
16735;SDS011;17990;49.548;9.730;2022-08-11T07:10:06;6.03;;;2.38;;
16735;SDS011;17990;49.548;9.730;2022-08-11T07:13:12;3.42;;;2.03;;
16735;SDS011;17990;49.548;9.730;2022-08-11T07:16:00;4.45;;;1.92;;
16735;SDS011;17990;49.548;9.730;2022-08-11T07:18:30;5.97;;;2.03;;
16735;SDS011;17990;49.548;9.730;2022-08-11T07:21:19;8.10;;;1.95;;
16735;SDS011;17990;49.548;9.730;2022-08-11T07:24:10;3.58;;;1.90;;
16735;SDS011;17990;49.548;9.730;2022-08-11T07:27:00;8.60;;;2.40;;
16735;SDS011;17990;49.548;9.730;2022-08-11T07:29:52;4.40;;;2.38;;
16735;SDS011;17990;49.548;9.730;2022-08-11T07:32:25;5.63;;;1.92;;
16735;SDS011;17990;49.548;9.730;2022-08-11T07:34:58;3.03;;;2.20;;
16735;SDS011;17990;49.548;9.730;2022-08-11T07:37:37;5.82;;;1.88;;
16735;SDS011;17990;49.548;9.730;2022-08-11T07:40:11;4.25;;;2.00;;
16735;SDS011;17990;49.548;9.730;2022-08-11T07:42:39;6.45;;;2.33;;
16735;SDS011;17990;49.548;9.730;2022-08-11T07:45:10;3.88;;;1.80;;
16735;SDS011;17990;49.548;9.730;2022-08-11T07:47:57;3.15;;;1.63;;
16735;SDS011;17990;49.548;9.730;2022-08-11T07:50:43;5.85;;;2.08;;
16735;SDS011;17990;49.548;9.730;2022-08-11T07:53:28;3.75;;;1.95;;
16735;SDS011;17990;49.548;9.730;2022-08-11T07:55:57;3.25;;;2.10;;
16735;SDS011;17990;49.548;9.730;2022-08-11T07:58:26;3.05;;;1.67;;
16735;SDS011;17990;49.548;9.730;2022-08-11T08:01:17;1.83;;;1.60;;
16735;SDS011;17990;49.548;9.730;2022-08-11T08:04:05;2.70;;;1.70;;
16735;SDS011;17990;49.548;9.730;2022-08-11T08:06:53;3.05;;;1.70;;
16735;SDS011;17990;49.548;9.730;2022-08-11T08:09:39;3.47;;;1.80;;
16735;SDS011;17990;49.548;9.730;2022-08-11T08:12:25;3.30;;;1.85;;
16735;SDS011;17990;49.548;9.730;2022-08-11T08:15:11;2.85;;;1.77;;
16735;SDS011;17990;49.548;9.730;2022-08-11T08:17:58;3.42;;;1.90;;
16735;SDS011;17990;49.548;9.730;2022-08-11T08:20:30;3.60;;;1.95;;
16735;SDS011;17990;49.548;9.730;2022-08-11T08:23:02;2.63;;;1.60;;
16735;SDS011;17990;49.548;9.730;2022-08-11T08:25:31;3.72;;;1.88;;
16735;SDS011;17990;49.548;9.730;2022-08-11T08:28:02;2.70;;;1.70;;
16735;SDS011;17990;49.548;9.730;2022-08-11T08:30:34;4.45;;;1.80;;
16735;SDS011;17990;49.548;9.730;2022-08-11T08:33:16;3.95;;;1.80;;
16735;SDS011;17990;49.548;9.730;2022-08-11T08:35:49;2.55;;;1.70;;
16735;SDS011;17990;49.548;9.730;2022-08-11T08:38:35;3.30;;;1.55;;
16735;SDS011;17990;49.548;9.730;2022-08-11T08:41:03;3.42;;;1.80;;
16735;SDS011;17990;49.548;9.730;2022-08-11T08:43:31;3.40;;;1.52;;
16735;SDS011;17990;49.548;9.730;2022-08-11T08:45:59;4.78;;;2.03;;
16735;SDS011;17990;49.548;9.730;2022-08-11T08:48:28;3.10;;;1.85;;
16735;SDS011;17990;49.548;9.730;2022-08-11T08:51:00;4.78;;;1.50;;
16735;SDS011;17990;49.548;9.730;2022-08-11T08:53:55;2.90;;;1.63;;
16735;SDS011;17990;49.548;9.730;2022-08-11T08:56:31;2.92;;;1.65;;
16735;SDS011;17990;49.548;9.730;2022-08-11T08:59:00;3.30;;;1.63;;
16735;SDS011;17990;49.548;9.730;2022-08-11T09:01:29;3.72;;;1.60;;
16735;SDS011;17990;49.548;9.730;2022-08-11T09:04:02;3.80;;;1.70;;
16735;SDS011;17990;49.548;9.730;2022-08-11T09:06:34;2.83;;;1.50;;
16735;SDS011;17990;49.548;9.730;2022-08-11T09:09:04;4.80;;;2.45;;
16735;SDS011;17990;49.548;9.730;2022-08-11T09:11:32;5.50;;;1.50;;
16735;SDS011;17990;49.548;9.730;2022-08-11T09:14:15;3.72;;;1.60;;
16735;SDS011;17990;49.548;9.730;2022-08-11T09:16:43;1.58;;;1.40;;
16735;SDS011;17990;49.548;9.730;2022-08-11T09:19:12;6.43;;;1.80;;
16735;SDS011;17990;49.548;9.730;2022-08-11T09:21:43;3.70;;;1.63;;
16735;SDS011;17990;49.548;9.730;2022-08-11T09:24:35;2.25;;;1.70;;
16735;SDS011;17990;49.548;9.730;2022-08-11T09:27:22;6.22;;;2.00;;
16735;SDS011;17990;49.548;9.730;2022-08-11T09:29:50;3.83;;;1.50;;
16735;SDS011;17990;49.548;9.730;2022-08-11T09:32:18;2.33;;;1.58;;
16735;SDS011;17990;49.548;9.730;2022-08-11T09:34:46;4.63;;;1.80;;
16735;SDS011;17990;49.548;9.730;2022-08-11T09:37:17;3.83;;;1.92;;
16735;SDS011;17990;49.548;9.730;2022-08-11T09:40:05;2.35;;;1.52;;
16735;SDS011;17990;49.548;9.730;2022-08-11T09:42:54;2.30;;;1.50;;
16735;SDS011;17990;49.548;9.730;2022-08-11T09:45:42;4.60;;;1.67;;
16735;SDS011;17990;49.548;9.730;2022-08-11T09:48:15;3.10;;;1.58;;
16735;SDS011;17990;49.548;9.730;2022-08-11T09:50:44;3.80;;;1.65;;
16735;SDS011;17990;49.548;9.730;2022-08-11T09:53:15;2.60;;;1.60;;
16735;SDS011;17990;49.548;9.730;2022-08-11T09:55:43;5.03;;;1.73;;
16735;SDS011;17990;49.548;9.730;2022-08-11T09:58:12;3.85;;;1.90;;
16735;SDS011;17990;49.548;9.730;2022-08-11T10:00:40;2.45;;;1.75;;
16735;SDS011;17990;49.548;9.730;2022-08-11T10:03:11;2.22;;;1.70;;
16735;SDS011;17990;49.548;9.730;2022-08-11T10:05:44;3.92;;;1.60;;
16735;SDS011;17990;49.548;9.730;2022-08-11T10:08:34;4.22;;;1.80;;
16735;SDS011;17990;49.548;9.730;2022-08-11T10:11:05;1.98;;;1.60;;
16735;SDS011;17990;49.548;9.730;2022-08-11T10:13:36;3.20;;;1.75;;
16735;SDS011;17990;49.548;9.730;2022-08-11T10:16:22;2.53;;;1.50;;
16735;SDS011;17990;49.548;9.730;2022-08-11T10:18:54;4.18;;;1.80;;
16735;SDS011;17990;49.548;9.730;2022-08-11T10:21:24;9.35;;;1.95;;
16735;SDS011;17990;49.548;9.730;2022-08-11T10:23:57;2.70;;;1.63;;
16735;SDS011;17990;49.548;9.730;2022-08-11T10:26:44;2.83;;;1.67;;
16735;SDS011;17990;49.548;9.730;2022-08-11T10:29:20;3.53;;;1.88;;
16735;SDS011;17990;49.548;9.730;2022-08-11T10:32:07;2.42;;;1.50;;
16735;SDS011;17990;49.548;9.730;2022-08-11T10:34:54;2.05;;;1.25;;
16735;SDS011;17990;49.548;9.730;2022-08-11T10:37:22;2.72;;;1.40;;
16735;SDS011;17990;49.548;9.730;2022-08-11T10:39:52;5.53;;;1.75;;
16735;SDS011;17990;49.548;9.730;2022-08-11T10:42:20;2.53;;;1.70;;
16735;SDS011;17990;49.548;9.730;2022-08-11T10:45:06;3.10;;;1.60;;
16735;SDS011;17990;49.548;9.730;2022-08-11T10:47:55;2.60;;;1.52;;
16735;SDS011;17990;49.548;9.730;2022-08-11T10:50:22;3.75;;;1.60;;
16735;SDS011;17990;49.548;9.730;2022-08-11T10:53:08;2.10;;;1.30;;
16735;SDS011;17990;49.548;9.730;2022-08-11T10:55:55;2.42;;;1.58;;
16735;SDS011;17990;49.548;9.730;2022-08-11T10:58:41;3.78;;;1.58;;
16735;SDS011;17990;49.548;9.730;2022-08-11T11:01:15;2.95;;;1.30;;
16735;SDS011;17990;49.548;9.730;2022-08-11T11:03:48;4.90;;;1.70;;
16735;SDS011;17990;49.548;9.730;2022-08-11T11:06:20;3.08;;;1.77;;
16735;SDS011;17990;49.548;9.730;2022-08-11T11:08:51;2.58;;;1.80;;
16735;SDS011;17990;49.548;9.730;2022-08-11T11:11:25;3.10;;;1.55;;
16735;SDS011;17990;49.548;9.730;2022-08-11T11:14:18;3.67;;;1.55;;
16735;SDS011;17990;49.548;9.730;2022-08-11T11:17:05;3.25;;;1.30;;
16735;SDS011;17990;49.548;9.730;2022-08-11T11:19:52;1.80;;;1.30;;
16735;SDS011;17990;49.548;9.730;2022-08-11T11:22:24;3.55;;;1.73;;
16735;SDS011;17990;49.548;9.730;2022-08-11T11:28:18;3.25;;;1.50;;
16735;SDS011;17990;49.548;9.730;2022-08-11T11:31:05;2.20;;;1.80;;
16735;SDS011;17990;49.548;9.730;2022-08-11T11:33:54;4.85;;;1.75;;
16735;SDS011;17990;49.548;9.730;2022-08-11T11:36:39;5.53;;;1.55;;
16735;SDS011;17990;49.548;9.730;2022-08-11T11:39:14;2.92;;;1.50;;
16735;SDS011;17990;49.548;9.730;2022-08-11T11:41:44;2.83;;;1.35;;
16735;SDS011;17990;49.548;9.730;2022-08-11T11:44:12;2.55;;;1.45;;
16735;SDS011;17990;49.548;9.730;2022-08-11T11:46:40;2.20;;;1.25;;
16735;SDS011;17990;49.548;9.730;2022-08-11T11:49:09;4.78;;;1.70;;
16735;SDS011;17990;49.548;9.730;2022-08-11T11:51:37;3.63;;;1.50;;
16735;SDS011;17990;49.548;9.730;2022-08-11T11:54:04;2.53;;;1.30;;
16735;SDS011;17990;49.548;9.730;2022-08-11T11:56:33;2.38;;;1.40;;
16735;SDS011;17990;49.548;9.730;2022-08-11T11:59:01;2.05;;;1.30;;
16735;SDS011;17990;49.548;9.730;2022-08-11T12:01:49;3.05;;;1.33;;
16735;SDS011;17990;49.548;9.730;2022-08-11T12:04:16;3.78;;;1.38;;
16735;SDS011;17990;49.548;9.730;2022-08-11T12:06:45;1.80;;;1.40;;
16735;SDS011;17990;49.548;9.730;2022-08-11T12:09:12;4.75;;;1.60;;
16735;SDS011;17990;49.548;9.730;2022-08-11T12:11:47;3.45;;;1.45;;
16735;SDS011;17990;49.548;9.730;2022-08-11T12:14:32;2.65;;;1.77;;
16735;SDS011;17990;49.548;9.730;2022-08-11T12:17:03;2.00;;;1.50;;
16735;SDS011;17990;49.548;9.730;2022-08-11T12:19:30;4.93;;;1.48;;
16735;SDS011;17990;49.548;9.730;2022-08-11T12:21:57;2.42;;;1.45;;
16735;SDS011;17990;49.548;9.730;2022-08-11T12:24:42;4.47;;;1.60;;
16735;SDS011;17990;49.548;9.730;2022-08-11T12:27:29;3.67;;;1.30;;
16735;SDS011;17990;49.548;9.730;2022-08-11T12:29:57;1.95;;;1.35;;
16735;SDS011;17990;49.548;9.730;2022-08-11T12:32:31;2.33;;;1.23;;
16735;SDS011;17990;49.548;9.730;2022-08-11T12:35:01;1.52;;;1.42;;
16735;SDS011;17990;49.548;9.730;2022-08-11T12:37:29;2.15;;;1.55;;
16735;SDS011;17990;49.548;9.730;2022-08-11T12:40:01;2.95;;;1.48;;
16735;SDS011;17990;49.548;9.730;2022-08-11T12:42:49;6.72;;;1.88;;
16735;SDS011;17990;49.548;9.730;2022-08-11T12:45:51;3.47;;;1.38;;
16735;SDS011;17990;49.548;9.730;2022-08-11T12:48:25;2.33;;;1.40;;
16735;SDS011;17990;49.548;9.730;2022-08-11T12:51:15;3.88;;;1.50;;
16735;SDS011;17990;49.548;9.730;2022-08-11T12:54:06;5.75;;;1.40;;
16735;SDS011;17990;49.548;9.730;2022-08-11T12:56:38;3.05;;;1.25;;
16735;SDS011;17990;49.548;9.730;2022-08-11T12:59:27;3.17;;;1.48;;
16735;SDS011;17990;49.548;9.730;2022-08-11T13:02:14;4.93;;;1.30;;
16735;SDS011;17990;49.548;9.730;2022-08-11T13:05:02;2.28;;;1.30;;
16735;SDS011;17990;49.548;9.730;2022-08-11T13:07:33;2.53;;;1.60;;
16735;SDS011;17990;49.548;9.730;2022-08-11T13:10:02;3.92;;;1.63;;
16735;SDS011;17990;49.548;9.730;2022-08-11T13:12:31;5.50;;;1.60;;
16735;SDS011;17990;49.548;9.730;2022-08-11T13:15:13;4.80;;;1.50;;
16735;SDS011;17990;49.548;9.730;2022-08-11T13:17:43;1.35;;;1.20;;
16735;SDS011;17990;49.548;9.730;2022-08-11T13:20:15;3.53;;;1.35;;
16735;SDS011;17990;49.548;9.730;2022-08-11T13:22:45;1.42;;;1.20;;
16735;SDS011;17990;49.548;9.730;2022-08-11T13:25:14;3.33;;;1.50;;
16735;SDS011;17990;49.548;9.730;2022-08-11T13:27:44;3.28;;;1.40;;
16735;SDS011;17990;49.548;9.730;2022-08-11T13:30:13;2.22;;;1.50;;
16735;SDS011;17990;49.548;9.730;2022-08-11T13:32:59;2.72;;;1.50;;
16735;SDS011;17990;49.548;9.730;2022-08-11T13:35:31;2.00;;;1.45;;
16735;SDS011;17990;49.548;9.730;2022-08-11T13:38:00;2.42;;;1.50;;
16735;SDS011;17990;49.548;9.730;2022-08-11T13:40:29;1.95;;;1.40;;
16735;SDS011;17990;49.548;9.730;2022-08-11T13:42:57;2.67;;;1.48;;
16735;SDS011;17990;49.548;9.730;2022-08-11T13:45:25;3.58;;;1.33;;
16735;SDS011;17990;49.548;9.730;2022-08-11T13:47:54;2.28;;;1.50;;
16735;SDS011;17990;49.548;9.730;2022-08-11T13:50:23;2.85;;;1.40;;
16735;SDS011;17990;49.548;9.730;2022-08-11T13:53:14;1.65;;;1.27;;
16735;SDS011;17990;49.548;9.730;2022-08-11T13:55:48;1.90;;;1.30;;
16735;SDS011;17990;49.548;9.730;2022-08-11T13:58:16;2.15;;;1.20;;
16735;SDS011;17990;49.548;9.730;2022-08-11T14:00:44;2.90;;;1.65;;
16735;SDS011;17990;49.548;9.730;2022-08-11T14:03:18;4.50;;;1.30;;
16735;SDS011;17990;49.548;9.730;2022-08-11T14:05:51;3.65;;;1.48;;
16735;SDS011;17990;49.548;9.730;2022-08-11T14:08:25;2.83;;;1.30;;
16735;SDS011;17990;49.548;9.730;2022-08-11T14:10:58;1.85;;;1.27;;
16735;SDS011;17990;49.548;9.730;2022-08-11T14:13:45;4.43;;;1.70;;
16735;SDS011;17990;49.548;9.730;2022-08-11T14:16:15;5.72;;;1.80;;
16735;SDS011;17990;49.548;9.730;2022-08-11T14:18:50;2.47;;;1.23;;
16735;SDS011;17990;49.548;9.730;2022-08-11T14:21:20;2.45;;;1.20;;
16735;SDS011;17990;49.548;9.730;2022-08-11T14:24:08;1.67;;;1.30;;
16735;SDS011;17990;49.548;9.730;2022-08-11T14:26:37;2.63;;;1.17;;
16735;SDS011;17990;49.548;9.730;2022-08-11T14:29:08;5.40;;;1.30;;
16735;SDS011;17990;49.548;9.730;2022-08-11T14:31:39;1.83;;;1.30;;
16735;SDS011;17990;49.548;9.730;2022-08-11T14:34:11;3.55;;;1.60;;
16735;SDS011;17990;49.548;9.730;2022-08-11T14:36:41;2.88;;;1.30;;
16735;SDS011;17990;49.548;9.730;2022-08-11T14:39:11;2.28;;;1.40;;
16735;SDS011;17990;49.548;9.730;2022-08-11T14:41:42;3.33;;;1.30;;
16735;SDS011;17990;49.548;9.730;2022-08-11T14:44:30;3.50;;;1.40;;
16735;SDS011;17990;49.548;9.730;2022-08-11T14:47:17;3.30;;;1.48;;
16735;SDS011;17990;49.548;9.730;2022-08-11T14:49:44;4.38;;;1.50;;
16735;SDS011;17990;49.548;9.730;2022-08-11T14:52:13;2.60;;;1.50;;
16735;SDS011;17990;49.548;9.730;2022-08-11T14:54:44;4.10;;;1.30;;
16735;SDS011;17990;49.548;9.730;2022-08-11T14:57:31;1.58;;;1.20;;
16735;SDS011;17990;49.548;9.730;2022-08-11T15:00:03;2.58;;;1.20;;
16735;SDS011;17990;49.548;9.730;2022-08-11T15:02:33;5.53;;;1.40;;
16735;SDS011;17990;49.548;9.730;2022-08-11T15:05:21;2.95;;;1.42;;
16735;SDS011;17990;49.548;9.730;2022-08-11T15:07:50;2.85;;;1.48;;
16735;SDS011;17990;49.548;9.730;2022-08-11T15:10:20;4.72;;;1.40;;
16735;SDS011;17990;49.548;9.730;2022-08-11T15:12:47;5.63;;;1.65;;
16735;SDS011;17990;49.548;9.730;2022-08-11T15:15:15;2.97;;;1.30;;
16735;SDS011;17990;49.548;9.730;2022-08-11T15:18:02;2.17;;;1.30;;
16735;SDS011;17990;49.548;9.730;2022-08-11T15:20:31;3.63;;;1.58;;
16735;SDS011;17990;49.548;9.730;2022-08-11T15:23:17;2.78;;;1.30;;
16735;SDS011;17990;49.548;9.730;2022-08-11T15:26:03;1.92;;;1.15;;
16735;SDS011;17990;49.548;9.730;2022-08-11T15:28:36;2.58;;;1.25;;
16735;SDS011;17990;49.548;9.730;2022-08-11T15:31:24;4.38;;;1.70;;
16735;SDS011;17990;49.548;9.730;2022-08-11T15:34:13;2.88;;;1.42;;
16735;SDS011;17990;49.548;9.730;2022-08-11T15:37:02;3.60;;;1.40;;
16735;SDS011;17990;49.548;9.730;2022-08-11T15:39:56;4.00;;;1.23;;
16735;SDS011;17990;49.548;9.730;2022-08-11T15:42:50;4.10;;;1.27;;
16735;SDS011;17990;49.548;9.730;2022-08-11T15:45:41;2.58;;;1.40;;
16735;SDS011;17990;49.548;9.730;2022-08-11T15:48:18;2.40;;;1.30;;
16735;SDS011;17990;49.548;9.730;2022-08-11T15:50:55;1.98;;;1.35;;
16735;SDS011;17990;49.548;9.730;2022-08-11T15:53:38;3.60;;;1.50;;
16735;SDS011;17990;49.548;9.730;2022-08-11T15:56:08;2.33;;;1.70;;
16735;SDS011;17990;49.548;9.730;2022-08-11T15:58:38;3.08;;;1.48;;
16735;SDS011;17990;49.548;9.730;2022-08-11T16:01:26;3.33;;;1.48;;
16735;SDS011;17990;49.548;9.730;2022-08-11T16:04:13;1.95;;;1.40;;
16735;SDS011;17990;49.548;9.730;2022-08-11T16:06:53;3.13;;;1.40;;
16735;SDS011;17990;49.548;9.730;2022-08-11T16:09:27;2.40;;;1.38;;
16735;SDS011;17990;49.548;9.730;2022-08-11T16:12:00;5.28;;;1.45;;
16735;SDS011;17990;49.548;9.730;2022-08-11T16:14:32;3.70;;;1.23;;
16735;SDS011;17990;49.548;9.730;2022-08-11T16:17:21;5.13;;;1.60;;
16735;SDS011;17990;49.548;9.730;2022-08-11T16:19:52;4.85;;;1.40;;
16735;SDS011;17990;49.548;9.730;2022-08-11T16:22:22;1.52;;;1.30;;
16735;SDS011;17990;49.548;9.730;2022-08-11T16:24:59;5.75;;;1.80;;
16735;SDS011;17990;49.548;9.730;2022-08-11T16:27:28;4.20;;;1.50;;
16735;SDS011;17990;49.548;9.730;2022-08-11T16:30:00;2.58;;;1.65;;
16735;SDS011;17990;49.548;9.730;2022-08-11T16:32:29;2.78;;;1.52;;
16735;SDS011;17990;49.548;9.730;2022-08-11T16:34:59;1.63;;;1.30;;
16735;SDS011;17990;49.548;9.730;2022-08-11T16:37:47;2.38;;;1.40;;
16735;SDS011;17990;49.548;9.730;2022-08-11T16:40:34;2.47;;;1.30;;
16735;SDS011;17990;49.548;9.730;2022-08-11T16:43:05;1.70;;;1.42;;
16735;SDS011;17990;49.548;9.730;2022-08-11T16:45:54;5.45;;;1.48;;
16735;SDS011;17990;49.548;9.730;2022-08-11T16:48:40;3.72;;;1.38;;
16735;SDS011;17990;49.548;9.730;2022-08-11T16:51:09;2.15;;;1.30;;
16735;SDS011;17990;49.548;9.730;2022-08-11T16:53:37;2.20;;;1.40;;